Townville, SC (29689)

12:47 PM EDT on July 29, 2016 (GMT -0400)
RIVERPOINTE | | Change Station

Elev 712 ft 34.54 °N, 82.79 °W | Updated 2 minutes ago

Scattered Clouds
Scattered Clouds
91.0 °F
Feels Like 99 °F
N
0.0
Wind Variable Wind from West

Today
High -- | Low -- °F
--% Chance of Precip.
Yesterday
High -- | Low -- °F
Precip. -- in
Pressure 29.98 in
Visibility 10.0 miles
Clouds Few 4000 ft
Scattered Clouds 10000 ft
Scattered Clouds 12000 ft
Heat Index 99 °F
Dew Point 72 °F
Humidity 54%
Rainfall 0.00 in
Snow Depth Not available.
6:40 AM 8:35 PM
Waning Crescent, 20% visible
METAR KCEU 291554Z AUTO 27008KT 240V300 10SM FEW040 SCT100 SCT120 32/21 A3001 RMK AO2 SLP150 T03220206
Pressure 29.98 in
Visibility 10.0 miles
Clouds Few 4000 ft
Scattered Clouds 10000 ft
Scattered Clouds 12000 ft
Heat Index 99 °F
Dew Point 72 °F
Humidity 54%
Rainfall 0.00 in
Snow Depth Not available.
6:40 AM 8:35 PM
Waning Crescent, 20% visible
METAR KCEU 291554Z AUTO 27008KT 240V300 10SM FEW040 SCT100 SCT120 32/21 A3001 RMK AO2 SLP150 T03220206

10-Day Weather Forecast

Almanac

Astronomy

Jul. 29, 2016 Rise Set
Actual Time
Civil Twilight
Nautical Twilight
Astronomical Twilight
Moon
Length of Visible Light
Length of Day
Tomorrow will be .
, % of the Moon is Illuminated

Today's Extremes

State Highs State Lows

Community

WunderPhotos

Upload Photos

1,928,378 photos uploaded!

WunderBlog® & News

Nearby

Air Quality

  Air Quality AQ Index Pollutant
Not available.

Snow Depth

Station Depth Elevation

Earthquake Activity

City Distance Mag. Time & Date
Minimum magnitude displayed is 2.5.

Coastal Water Temperatures

Place Temperature

Stations

Nearby Weather Stations

Station Location Temp. Windchill Dew Point Humidity Wind Precip. Elev Updated Type
                   

Watches & Warnings

There are currently no watches in effect.